sensor_id;sensor_type;location;lat;lon;timestamp;temperature;humidity
39019;DHT22;24786;51.984;5.872;2023-02-22T00:00:21;7.70;99.90
39019;DHT22;24786;51.984;5.872;2023-02-22T00:02:54;7.60;99.90
39019;DHT22;24786;51.984;5.872;2023-02-22T00:05:25;7.70;99.90
39019;DHT22;24786;51.984;5.872;2023-02-22T00:07:51;7.70;99.90
39019;DHT22;24786;51.984;5.872;2023-02-22T00:10:17;7.70;99.90
39019;DHT22;24786;51.984;5.872;2023-02-22T00:12:54;7.60;99.90
39019;DHT22;24786;51.984;5.872;2023-02-22T00:15:22;7.60;99.90
39019;DHT22;24786;51.984;5.872;2023-02-22T00:17:54;7.60;99.90
39019;DHT22;24786;51.984;5.872;2023-02-22T00:20:22;7.60;99.90
39019;DHT22;24786;51.984;5.872;2023-02-22T00:22:49;7.60;99.90
39019;DHT22;24786;51.984;5.872;2023-02-22T00:25:18;7.50;99.90
39019;DHT22;24786;51.984;5.872;2023-02-22T00:27:45;7.60;99.90
39019;DHT22;24786;51.984;5.872;2023-02-22T00:30:28;7.50;99.90
39019;DHT22;24786;51.984;5.872;2023-02-22T00:32:55;7.50;99.90
39019;DHT22;24786;51.984;5.872;2023-02-22T00:35:23;7.50;99.90
39019;DHT22;24786;51.984;5.872;2023-02-22T00:37:50;7.50;99.90
39019;DHT22;24786;51.984;5.872;2023-02-22T00:40:29;7.50;99.90
39019;DHT22;24786;51.984;5.872;2023-02-22T00:42:56;7.50;99.90
39019;DHT22;24786;51.984;5.872;2023-02-22T00:45:24;7.40;99.90
39019;DHT22;24786;51.984;5.872;2023-02-22T00:47:51;7.40;99.90
39019;DHT22;24786;51.984;5.872;2023-02-22T00:50:19;7.40;99.90
39019;DHT22;24786;51.984;5.872;2023-02-22T00:52:46;7.40;99.90
39019;DHT22;24786;51.984;5.872;2023-02-22T00:55:18;7.40;99.90
39019;DHT22;24786;51.984;5.872;2023-02-22T00:57:44;7.40;99.90
39019;DHT22;24786;51.984;5.872;2023-02-22T01:00:17;7.40;99.90
39019;DHT22;24786;51.984;5.872;2023-02-22T01:02:43;7.40;99.90
39019;DHT22;24786;51.984;5.872;2023-02-22T01:05:11;7.40;99.90
39019;DHT22;24786;51.984;5.872;2023-02-22T01:07:38;7.40;99.90
39019;DHT22;24786;51.984;5.872;2023-02-22T01:10:04;7.40;99.90
39019;DHT22;24786;51.984;5.872;2023-02-22T01:12:29;7.40;99.90
39019;DHT22;24786;51.984;5.872;2023-02-22T01:14:56;7.40;99.90
39019;DHT22;24786;51.984;5.872;2023-02-22T01:17:23;7.40;99.90
39019;DHT22;24786;51.984;5.872;2023-02-22T01:19:50;7.40;99.90
39019;DHT22;24786;51.984;5.872;2023-02-22T01:22:15;7.40;99.90
39019;DHT22;24786;51.984;5.872;2023-02-22T01:24:41;7.40;99.90
39019;DHT22;24786;51.984;5.872;2023-02-22T01:27:10;7.40;99.90
39019;DHT22;24786;51.984;5.872;2023-02-22T01:29:35;7.40;99.90
39019;DHT22;24786;51.984;5.872;2023-02-22T01:32:01;7.40;99.90
39019;DHT22;24786;51.984;5.872;2023-02-22T01:34:27;7.40;99.90
39019;DHT22;24786;51.984;5.872;2023-02-22T01:36:52;7.40;99.90
39019;DHT22;24786;51.984;5.872;2023-02-22T01:39:18;7.40;99.90
39019;DHT22;24786;51.984;5.872;2023-02-22T01:41:44;7.40;99.90
39019;DHT22;24786;51.984;5.872;2023-02-22T01:44:39;7.40;99.90
39019;DHT22;24786;51.984;5.872;2023-02-22T01:47:06;7.30;99.90
39019;DHT22;24786;51.984;5.872;2023-02-22T01:49:38;7.30;99.90
39019;DHT22;24786;51.984;5.872;2023-02-22T01:52:09;7.30;99.90
39019;DHT22;24786;51.984;5.872;2023-02-22T01:54:45;7.30;99.90
39019;DHT22;24786;51.984;5.872;2023-02-22T01:59:47;7.30;99.90
39019;DHT22;24786;51.984;5.872;2023-02-22T02:02:14;7.30;99.90
39019;DHT22;24786;51.984;5.872;2023-02-22T02:04:40;7.20;99.90
39019;DHT22;24786;51.984;5.872;2023-02-22T02:07:08;7.20;99.90
39019;DHT22;24786;51.984;5.872;2023-02-22T02:09:39;7.20;99.90
39019;DHT22;24786;51.984;5.872;2023-02-22T02:12:09;7.20;99.90
39019;DHT22;24786;51.984;5.872;2023-02-22T02:14:35;7.20;99.90
39019;DHT22;24786;51.984;5.872;2023-02-22T02:17:08;7.20;99.90
39019;DHT22;24786;51.984;5.872;2023-02-22T02:31:33;7.10;99.90
39019;DHT22;24786;51.984;5.872;2023-02-22T02:36:43;7.00;99.90
39019;DHT22;24786;51.984;5.872;2023-02-22T02:39:34;7.00;99.90
39019;DHT22;24786;51.984;5.872;2023-02-22T02:42:05;7.00;99.90
39019;DHT22;24786;51.984;5.872;2023-02-22T02:44:45;6.90;99.90
39019;DHT22;24786;51.984;5.872;2023-02-22T02:47:34;6.90;99.90
39019;DHT22;24786;51.984;5.872;2023-02-22T02:50:17;6.90;99.90
39019;DHT22;24786;51.984;5.872;2023-02-22T02:52:44;6.90;99.90
39019;DHT22;24786;51.984;5.872;2023-02-22T02:55:11;6.80;99.90
39019;DHT22;24786;51.984;5.872;2023-02-22T02:57:37;6.90;99.90
39019;DHT22;24786;51.984;5.872;2023-02-22T03:00:10;6.90;99.90
39019;DHT22;24786;51.984;5.872;2023-02-22T03:02:54;6.90;99.90
39019;DHT22;24786;51.984;5.872;2023-02-22T03:08:26;6.90;99.90
39019;DHT22;24786;51.984;5.872;2023-02-22T03:11:09;6.90;99.90
39019;DHT22;24786;51.984;5.872;2023-02-22T03:19:08;6.90;99.90
39019;DHT22;24786;51.984;5.872;2023-02-22T03:24:41;6.80;99.90
39019;DHT22;24786;51.984;5.872;2023-02-22T03:29:46;6.70;99.90
39019;DHT22;24786;51.984;5.872;2023-02-22T03:32:20;6.70;99.90
39019;DHT22;24786;51.984;5.872;2023-02-22T03:34:53;6.70;99.90
39019;DHT22;24786;51.984;5.872;2023-02-22T03:37:31;6.70;99.90
39019;DHT22;24786;51.984;5.872;2023-02-22T03:39:59;6.70;99.90
39019;DHT22;24786;51.984;5.872;2023-02-22T03:42:35;6.70;99.90
39019;DHT22;24786;51.984;5.872;2023-02-22T03:45:03;6.60;99.90
39019;DHT22;24786;51.984;5.872;2023-02-22T03:47:38;6.60;99.90
39019;DHT22;24786;51.984;5.872;2023-02-22T03:50:11;6.60;99.90
39019;DHT22;24786;51.984;5.872;2023-02-22T03:52:40;6.50;99.90
39019;DHT22;24786;51.984;5.872;2023-02-22T03:55:08;6.60;99.90
39019;DHT22;24786;51.984;5.872;2023-02-22T03:57:38;6.50;99.90
39019;DHT22;24786;51.984;5.872;2023-02-22T04:00:08;6.50;99.90
39019;DHT22;24786;51.984;5.872;2023-02-22T04:02:34;6.50;99.90
39019;DHT22;24786;51.984;5.872;2023-02-22T04:05:00;6.50;99.90
39019;DHT22;24786;51.984;5.872;2023-02-22T04:07:25;6.60;99.90
39019;DHT22;24786;51.984;5.872;2023-02-22T04:09:51;6.60;99.90
39019;DHT22;24786;51.984;5.872;2023-02-22T04:12:17;6.60;99.90
39019;DHT22;24786;51.984;5.872;2023-02-22T04:14:42;6.50;99.90
39019;DHT22;24786;51.984;5.872;2023-02-22T04:17:08;6.50;99.90
39019;DHT22;24786;51.984;5.872;2023-02-22T04:19:34;6.50;99.90
39019;DHT22;24786;51.984;5.872;2023-02-22T04:21:59;6.50;99.90
39019;DHT22;24786;51.984;5.872;2023-02-22T04:24:25;6.50;99.90
39019;DHT22;24786;51.984;5.872;2023-02-22T04:26:50;6.40;99.90
39019;DHT22;24786;51.984;5.872;2023-02-22T04:29:16;6.40;99.90
39019;DHT22;24786;51.984;5.872;2023-02-22T04:31:41;6.40;99.90
39019;DHT22;24786;51.984;5.872;2023-02-22T04:34:07;6.40;99.90
39019;DHT22;24786;51.984;5.872;2023-02-22T04:36:32;6.40;99.90
39019;DHT22;24786;51.984;5.872;2023-02-22T04:38:59;6.40;99.90
39019;DHT22;24786;51.984;5.872;2023-02-22T04:41:25;6.30;99.90
39019;DHT22;24786;51.984;5.872;2023-02-22T04:43:50;6.30;99.90
39019;DHT22;24786;51.984;5.872;2023-02-22T04:46:16;6.30;99.90
39019;DHT22;24786;51.984;5.872;2023-02-22T04:48:42;6.30;99.90
39019;DHT22;24786;51.984;5.872;2023-02-22T04:51:08;6.30;99.90
39019;DHT22;24786;51.984;5.872;2023-02-22T04:53:34;6.30;99.90
39019;DHT22;24786;51.984;5.872;2023-02-22T04:56:00;6.40;99.90
39019;DHT22;24786;51.984;5.872;2023-02-22T04:58:26;6.30;99.90
39019;DHT22;24786;51.984;5.872;2023-02-22T05:00:51;6.30;99.90
39019;DHT22;24786;51.984;5.872;2023-02-22T05:03:17;6.30;99.90
39019;DHT22;24786;51.984;5.872;2023-02-22T05:05:43;6.20;99.90
39019;DHT22;24786;51.984;5.872;2023-02-22T05:08:08;6.20;99.90
39019;DHT22;24786;51.984;5.872;2023-02-22T05:10:34;6.20;99.90
39019;DHT22;24786;51.984;5.872;2023-02-22T05:12:59;6.20;99.90
39019;DHT22;24786;51.984;5.872;2023-02-22T05:15:25;6.20;99.90
39019;DHT22;24786;51.984;5.872;2023-02-22T05:17:51;6.20;99.90
39019;DHT22;24786;51.984;5.872;2023-02-22T05:20:25;6.20;99.90
39019;DHT22;24786;51.984;5.872;2023-02-22T05:22:56;6.20;99.90
39019;DHT22;24786;51.984;5.872;2023-02-22T05:25:23;6.30;99.90
39019;DHT22;24786;51.984;5.872;2023-02-22T05:28:00;6.20;99.90
39019;DHT22;24786;51.984;5.872;2023-02-22T05:30:30;6.30;99.90
39019;DHT22;24786;51.984;5.872;2023-02-22T05:32:57;6.30;99.90
39019;DHT22;24786;51.984;5.872;2023-02-22T05:35:23;6.20;99.90
39019;DHT22;24786;51.984;5.872;2023-02-22T05:37:49;6.20;99.90
39019;DHT22;24786;51.984;5.872;2023-02-22T05:40:20;6.20;99.90
39019;DHT22;24786;51.984;5.872;2023-02-22T05:42:47;6.20;99.90
39019;DHT22;24786;51.984;5.872;2023-02-22T05:45:14;6.20;99.90
39019;DHT22;24786;51.984;5.872;2023-02-22T05:47:40;6.10;99.90
39019;DHT22;24786;51.984;5.872;2023-02-22T05:50:06;6.10;99.90
39019;DHT22;24786;51.984;5.872;2023-02-22T05:52:32;6.10;99.90
39019;DHT22;24786;51.984;5.872;2023-02-22T05:54:57;6.00;99.90
39019;DHT22;24786;51.984;5.872;2023-02-22T05:57:23;6.00;99.90
39019;DHT22;24786;51.984;5.872;2023-02-22T05:59:48;5.90;99.90
39019;DHT22;24786;51.984;5.872;2023-02-22T06:02:14;5.90;99.90
39019;DHT22;24786;51.984;5.872;2023-02-22T06:04:43;5.80;99.90
39019;DHT22;24786;51.984;5.872;2023-02-22T06:07:13;5.90;99.90
39019;DHT22;24786;51.984;5.872;2023-02-22T06:09:38;5.90;99.90
39019;DHT22;24786;51.984;5.872;2023-02-22T06:12:05;5.90;99.90
39019;DHT22;24786;51.984;5.872;2023-02-22T06:14:30;5.90;99.90
39019;DHT22;24786;51.984;5.872;2023-02-22T06:16:56;5.90;99.90
39019;DHT22;24786;51.984;5.872;2023-02-22T06:19:22;5.90;99.90
39019;DHT22;24786;51.984;5.872;2023-02-22T06:21:54;6.00;99.90
39019;DHT22;24786;51.984;5.872;2023-02-22T06:24:20;5.90;99.90
39019;DHT22;24786;51.984;5.872;2023-02-22T06:26:46;6.00;99.90
39019;DHT22;24786;51.984;5.872;2023-02-22T06:29:18;6.00;99.90
39019;DHT22;24786;51.984;5.872;2023-02-22T06:31:44;5.90;99.90
39019;DHT22;24786;51.984;5.872;2023-02-22T06:34:09;5.90;99.90
39019;DHT22;24786;51.984;5.872;2023-02-22T06:36:35;5.90;99.90
39019;DHT22;24786;51.984;5.872;2023-02-22T06:39:01;5.90;99.90
39019;DHT22;24786;51.984;5.872;2023-02-22T06:41:26;5.90;99.90
39019;DHT22;24786;51.984;5.872;2023-02-22T06:43:52;5.90;99.90
39019;DHT22;24786;51.984;5.872;2023-02-22T06:46:17;5.90;99.90
39019;DHT22;24786;51.984;5.872;2023-02-22T06:48:43;5.90;99.90
39019;DHT22;24786;51.984;5.872;2023-02-22T06:51:09;5.90;99.90
39019;DHT22;24786;51.984;5.872;2023-02-22T06:53:35;5.90;99.90
39019;DHT22;24786;51.984;5.872;2023-02-22T06:56:01;5.90;99.90
39019;DHT22;24786;51.984;5.872;2023-02-22T06:58:27;5.90;99.90
39019;DHT22;24786;51.984;5.872;2023-02-22T07:00:53;5.90;99.90
39019;DHT22;24786;51.984;5.872;2023-02-22T07:03:19;5.90;99.90
39019;DHT22;24786;51.984;5.872;2023-02-22T07:05:45;5.90;99.90
39019;DHT22;24786;51.984;5.872;2023-02-22T07:08:13;5.90;99.90
39019;DHT22;24786;51.984;5.872;2023-02-22T07:10:39;6.00;99.90
39019;DHT22;24786;51.984;5.872;2023-02-22T07:13:06;6.00;99.90
39019;DHT22;24786;51.984;5.872;2023-02-22T07:15:33;6.00;99.90
39019;DHT22;24786;51.984;5.872;2023-02-22T07:17:59;6.00;99.90
39019;DHT22;24786;51.984;5.872;2023-02-22T07:20:27;6.00;99.90
39019;DHT22;24786;51.984;5.872;2023-02-22T07:22:52;6.00;99.90
39019;DHT22;24786;51.984;5.872;2023-02-22T07:25:18;5.90;99.90
39019;DHT22;24786;51.984;5.872;2023-02-22T07:27:44;5.90;99.90
39019;DHT22;24786;51.984;5.872;2023-02-22T07:30:17;5.90;99.90
39019;DHT22;24786;51.984;5.872;2023-02-22T07:32:43;6.00;99.90
39019;DHT22;24786;51.984;5.872;2023-02-22T07:35:24;6.00;99.90
39019;DHT22;24786;51.984;5.872;2023-02-22T07:37:50;6.10;99.90
39019;DHT22;24786;51.984;5.872;2023-02-22T07:40:16;6.20;99.90
39019;DHT22;24786;51.984;5.872;2023-02-22T07:42:57;6.20;99.90
39019;DHT22;24786;51.984;5.872;2023-02-22T07:45:29;6.20;99.90
39019;DHT22;24786;51.984;5.872;2023-02-22T07:47:55;6.20;99.90
39019;DHT22;24786;51.984;5.872;2023-02-22T07:50:23;6.20;99.90
39019;DHT22;24786;51.984;5.872;2023-02-22T07:52:51;6.20;99.90
39019;DHT22;24786;51.984;5.872;2023-02-22T07:55:19;6.30;99.90
39019;DHT22;24786;51.984;5.872;2023-02-22T07:57:46;6.30;99.90
39019;DHT22;24786;51.984;5.872;2023-02-22T08:00:19;6.30;99.90
39019;DHT22;24786;51.984;5.872;2023-02-22T08:02:45;6.30;99.90
39019;DHT22;24786;51.984;5.872;2023-02-22T08:05:13;6.30;99.90
39019;DHT22;24786;51.984;5.872;2023-02-22T08:07:38;6.30;99.90
39019;DHT22;24786;51.984;5.872;2023-02-22T08:10:06;6.30;99.90
39019;DHT22;24786;51.984;5.872;2023-02-22T08:12:33;6.40;99.90
39019;DHT22;24786;51.984;5.872;2023-02-22T08:15:00;6.40;99.90
39019;DHT22;24786;51.984;5.872;2023-02-22T08:17:26;6.50;99.90
39019;DHT22;24786;51.984;5.872;2023-02-22T08:19:51;6.50;99.90
39019;DHT22;24786;51.984;5.872;2023-02-22T08:22:17;6.60;99.90
39019;DHT22;24786;51.984;5.872;2023-02-22T08:24:45;6.60;99.90
39019;DHT22;24786;51.984;5.872;2023-02-22T08:27:11;6.60;99.90
39019;DHT22;24786;51.984;5.872;2023-02-22T08:29:36;6.70;99.90
39019;DHT22;24786;51.984;5.872;2023-02-22T08:32:02;6.70;99.90
39019;DHT22;24786;51.984;5.872;2023-02-22T08:34:28;6.70;99.90
39019;DHT22;24786;51.984;5.872;2023-02-22T08:36:54;6.70;99.90
39019;DHT22;24786;51.984;5.872;2023-02-22T08:39:20;6.70;99.90
39019;DHT22;24786;51.984;5.872;2023-02-22T08:41:46;6.80;99.90
39019;DHT22;24786;51.984;5.872;2023-02-22T08:44:12;6.80;99.90
39019;DHT22;24786;51.984;5.872;2023-02-22T08:46:38;6.80;99.90
39019;DHT22;24786;51.984;5.872;2023-02-22T08:49:03;6.80;99.90
39019;DHT22;24786;51.984;5.872;2023-02-22T08:51:34;6.80;99.90
39019;DHT22;24786;51.984;5.872;2023-02-22T08:54:00;6.80;99.90
39019;DHT22;24786;51.984;5.872;2023-02-22T08:56:28;6.80;99.90
39019;DHT22;24786;51.984;5.872;2023-02-22T08:58:54;6.80;99.90
39019;DHT22;24786;51.984;5.872;2023-02-22T09:01:22;6.80;99.90
39019;DHT22;24786;51.984;5.872;2023-02-22T09:03:49;6.90;99.90
39019;DHT22;24786;51.984;5.872;2023-02-22T09:06:15;6.90;99.90
39019;DHT22;24786;51.984;5.872;2023-02-22T09:08:41;6.90;99.90
39019;DHT22;24786;51.984;5.872;2023-02-22T09:11:06;6.90;99.90
39019;DHT22;24786;51.984;5.872;2023-02-22T09:13:32;7.00;99.90
39019;DHT22;24786;51.984;5.872;2023-02-22T09:15:58;7.00;99.90
39019;DHT22;24786;51.984;5.872;2023-02-22T09:18:24;7.10;99.90
39019;DHT22;24786;51.984;5.872;2023-02-22T09:20:51;7.10;99.90
39019;DHT22;24786;51.984;5.872;2023-02-22T09:23:17;7.20;99.90
39019;DHT22;24786;51.984;5.872;2023-02-22T09:25:43;7.30;99.90
39019;DHT22;24786;51.984;5.872;2023-02-22T09:28:09;7.30;99.90
39019;DHT22;24786;51.984;5.872;2023-02-22T09:30:35;7.40;99.90
39019;DHT22;24786;51.984;5.872;2023-02-22T09:33:06;7.40;99.90
39019;DHT22;24786;51.984;5.872;2023-02-22T09:35:34;7.50;99.90
39019;DHT22;24786;51.984;5.872;2023-02-22T09:38:01;7.60;99.90
39019;DHT22;24786;51.984;5.872;2023-02-22T09:40:29;7.70;99.90
39019;DHT22;24786;51.984;5.872;2023-02-22T09:46:04;7.80;99.90
39019;DHT22;24786;51.984;5.872;2023-02-22T09:48:43;7.80;99.90
39019;DHT22;24786;51.984;5.872;2023-02-22T09:51:15;7.90;99.90
39019;DHT22;24786;51.984;5.872;2023-02-22T09:53:44;8.00;99.90
39019;DHT22;24786;51.984;5.872;2023-02-22T09:56:13;8.00;99.90
39019;DHT22;24786;51.984;5.872;2023-02-22T09:58:47;8.00;99.90
39019;DHT22;24786;51.984;5.872;2023-02-22T10:01:37;8.10;99.90
39019;DHT22;24786;51.984;5.872;2023-02-22T10:04:32;8.10;99.90
39019;DHT22;24786;51.984;5.872;2023-02-22T10:07:03;8.10;99.90
39019;DHT22;24786;51.984;5.872;2023-02-22T10:09:32;8.20;99.90
39019;DHT22;24786;51.984;5.872;2023-02-22T10:12:02;8.20;99.90
39019;DHT22;24786;51.984;5.872;2023-02-22T10:23:37;8.30;99.90
39019;DHT22;24786;51.984;5.872;2023-02-22T10:26:15;8.30;99.90
39019;DHT22;24786;51.984;5.872;2023-02-22T10:32:03;8.30;99.90
39019;DHT22;24786;51.984;5.872;2023-02-22T10:34:35;8.40;99.90
39019;DHT22;24786;51.984;5.872;2023-02-22T10:42:36;8.50;99.90
39019;DHT22;24786;51.984;5.872;2023-02-22T10:45:01;8.50;99.90
39019;DHT22;24786;51.984;5.872;2023-02-22T10:47:27;8.60;99.90
39019;DHT22;24786;51.984;5.872;2023-02-22T10:49:56;8.60;99.90
39019;DHT22;24786;51.984;5.872;2023-02-22T10:52:31;8.70;99.90
39019;DHT22;24786;51.984;5.872;2023-02-22T10:55:01;8.70;99.90
39019;DHT22;24786;51.984;5.872;2023-02-22T10:57:32;8.80;99.90
39019;DHT22;24786;51.984;5.872;2023-02-22T11:00:27;8.90;99.90
39019;DHT22;24786;51.984;5.872;2023-02-22T11:02:59;9.00;99.90
39019;DHT22;24786;51.984;5.872;2023-02-22T11:05:37;9.10;99.90
39019;DHT22;24786;51.984;5.872;2023-02-22T11:08:24;9.20;99.90
39019;DHT22;24786;51.984;5.872;2023-02-22T11:10:52;9.30;99.90
39019;DHT22;24786;51.984;5.872;2023-02-22T11:13:32;9.30;99.90
39019;DHT22;24786;51.984;5.872;2023-02-22T11:16:18;9.30;99.90
39019;DHT22;24786;51.984;5.872;2023-02-22T11:18:45;9.30;99.90
39019;DHT22;24786;51.984;5.872;2023-02-22T11:21:11;9.40;99.90
39019;DHT22;24786;51.984;5.872;2023-02-22T11:23:40;9.40;99.90
39019;DHT22;24786;51.984;5.872;2023-02-22T11:26:15;9.40;99.90
39019;DHT22;24786;51.984;5.872;2023-02-22T11:28:44;9.50;99.90
39019;DHT22;24786;51.984;5.872;2023-02-22T11:31:29;9.50;99.90
39019;DHT22;24786;51.984;5.872;2023-02-22T11:34:00;9.60;99.90
39019;DHT22;24786;51.984;5.872;2023-02-22T11:36:36;9.60;99.90
39019;DHT22;24786;51.984;5.872;2023-02-22T11:39:10;9.70;99.90
39019;DHT22;24786;51.984;5.872;2023-02-22T11:41:45;9.70;99.90
39019;DHT22;24786;51.984;5.872;2023-02-22T11:44:20;9.90;99.90
39019;DHT22;24786;51.984;5.872;2023-02-22T11:46:46;9.90;99.90
39019;DHT22;24786;51.984;5.872;2023-02-22T11:49:13;9.90;99.90
39019;DHT22;24786;51.984;5.872;2023-02-22T11:54:37;10.00;99.90
39019;DHT22;24786;51.984;5.872;2023-02-22T11:57:17;10.00;99.90
39019;DHT22;24786;51.984;5.872;2023-02-22T12:08:31;10.10;99.90
39019;DHT22;24786;51.984;5.872;2023-02-22T12:11:24;10.20;99.90
39019;DHT22;24786;51.984;5.872;2023-02-22T12:16:53;10.30;99.90
39019;DHT22;24786;51.984;5.872;2023-02-22T12:19:34;10.40;99.90
39019;DHT22;24786;51.984;5.872;2023-02-22T12:22:23;10.40;99.90
39019;DHT22;24786;51.984;5.872;2023-02-22T12:27:33;10.60;99.90
39019;DHT22;24786;51.984;5.872;2023-02-22T12:30:06;10.70;99.90
39019;DHT22;24786;51.984;5.872;2023-02-22T12:32:38;10.80;99.90
39019;DHT22;24786;51.984;5.872;2023-02-22T12:35:25;10.80;99.90
39019;DHT22;24786;51.984;5.872;2023-02-22T12:38:08;10.90;99.90
39019;DHT22;24786;51.984;5.872;2023-02-22T12:40:59;10.90;99.90
39019;DHT22;24786;51.984;5.872;2023-02-22T12:43:38;10.90;99.90
39019;DHT22;24786;51.984;5.872;2023-02-22T12:49:15;11.00;99.90
39019;DHT22;24786;51.984;5.872;2023-02-22T12:51:48;10.90;99.90
39019;DHT22;24786;51.984;5.872;2023-02-22T12:57:25;10.90;99.90
39019;DHT22;24786;51.984;5.872;2023-02-22T12:59:59;10.90;99.90
39019;DHT22;24786;51.984;5.872;2023-02-22T13:02:37;10.90;99.90
39019;DHT22;24786;51.984;5.872;2023-02-22T13:05:13;11.00;99.90
39019;DHT22;24786;51.984;5.872;2023-02-22T13:11:09;11.10;99.90
39019;DHT22;24786;51.984;5.872;2023-02-22T13:15:52;11.10;99.90
39019;DHT22;24786;51.984;5.872;2023-02-22T13:26:23;11.10;99.90
39019;DHT22;24786;51.984;5.872;2023-02-22T13:28:56;11.10;99.90
39019;DHT22;24786;51.984;5.872;2023-02-22T13:31:31;11.10;99.90
39019;DHT22;24786;51.984;5.872;2023-02-22T13:34:20;11.00;99.90
39019;DHT22;24786;51.984;5.872;2023-02-22T13:53:50;10.90;99.90
39019;DHT22;24786;51.984;5.872;2023-02-22T13:56:22;10.90;99.90
39019;DHT22;24786;51.984;5.872;2023-02-22T13:58:50;10.90;99.90
39019;DHT22;24786;51.984;5.872;2023-02-22T14:01:38;10.90;99.90
39019;DHT22;24786;51.984;5.872;2023-02-22T14:09:49;11.00;99.90
39019;DHT22;24786;51.984;5.872;2023-02-22T14:18:02;11.00;99.90
39019;DHT22;24786;51.984;5.872;2023-02-22T14:20:34;11.00;99.90
39019;DHT22;24786;51.984;5.872;2023-02-22T14:23:25;11.00;99.90
39019;DHT22;24786;51.984;5.872;2023-02-22T14:25:56;10.90;99.90
39019;DHT22;24786;51.984;5.872;2023-02-22T14:34:15;10.80;99.90
39019;DHT22;24786;51.984;5.872;2023-02-22T14:36:58;10.80;99.90
39019;DHT22;24786;51.984;5.872;2023-02-22T14:47:47;10.80;99.90
39019;DHT22;24786;51.984;5.872;2023-02-22T14:50:24;10.80;99.90
39019;DHT22;24786;51.984;5.872;2023-02-22T14:53:03;10.80;99.90
39019;DHT22;24786;51.984;5.872;2023-02-22T14:55:36;10.80;99.90
39019;DHT22;24786;51.984;5.872;2023-02-22T14:58:06;10.80;99.90
39019;DHT22;24786;51.984;5.872;2023-02-22T15:00:42;10.80;99.90
39019;DHT22;24786;51.984;5.872;2023-02-22T15:03:31;10.80;99.90
39019;DHT22;24786;51.984;5.872;2023-02-22T15:06:22;10.80;99.90
39019;DHT22;24786;51.984;5.872;2023-02-22T15:09:07;10.80;99.90
39019;DHT22;24786;51.984;5.872;2023-02-22T15:11:33;10.70;99.90
39019;DHT22;24786;51.984;5.872;2023-02-22T15:14:00;10.70;99.90
39019;DHT22;24786;51.984;5.872;2023-02-22T15:16:29;10.70;99.90
39019;DHT22;24786;51.984;5.872;2023-02-22T15:19:03;10.70;99.90
39019;DHT22;24786;51.984;5.872;2023-02-22T15:21:31;10.70;99.90
39019;DHT22;24786;51.984;5.872;2023-02-22T15:24:02;10.70;99.90
39019;DHT22;24786;51.984;5.872;2023-02-22T15:26:36;10.70;99.90
39019;DHT22;24786;51.984;5.872;2023-02-22T15:29:22;10.70;99.90
39019;DHT22;24786;51.984;5.872;2023-02-22T15:31:49;10.60;99.90
39019;DHT22;24786;51.984;5.872;2023-02-22T15:36:45;10.50;99.90
39019;DHT22;24786;51.984;5.872;2023-02-22T15:39:23;10.50;99.90
39019;DHT22;24786;51.984;5.872;2023-02-22T15:42:10;10.50;99.90
39019;DHT22;24786;51.984;5.872;2023-02-22T15:44:44;10.40;99.90
39019;DHT22;24786;51.984;5.872;2023-02-22T15:47:18;10.30;99.90
39019;DHT22;24786;51.984;5.872;2023-02-22T15:49:44;10.30;99.90
39019;DHT22;24786;51.984;5.872;2023-02-22T15:52:22;10.30;99.90
39019;DHT22;24786;51.984;5.872;2023-02-22T15:54:50;10.20;99.90
39019;DHT22;24786;51.984;5.872;2023-02-22T15:57:18;10.20;99.90
39019;DHT22;24786;51.984;5.872;2023-02-22T15:59:49;10.20;99.90
39019;DHT22;24786;51.984;5.872;2023-02-22T16:05:07;10.20;99.90
39019;DHT22;24786;51.984;5.872;2023-02-22T16:07:37;10.20;99.90
39019;DHT22;24786;51.984;5.872;2023-02-22T16:10:04;10.20;99.90
39019;DHT22;24786;51.984;5.872;2023-02-22T16:12:33;10.20;99.90
39019;DHT22;24786;51.984;5.872;2023-02-22T16:15:00;10.20;99.90
39019;DHT22;24786;51.984;5.872;2023-02-22T16:17:36;10.10;99.90
39019;DHT22;24786;51.984;5.872;2023-02-22T16:22:42;10.20;99.90
39019;DHT22;24786;51.984;5.872;2023-02-22T16:28:33;10.10;99.90
39019;DHT22;24786;51.984;5.872;2023-02-22T16:30:37;10.20;99.90
39019;DHT22;24786;51.984;5.872;2023-02-22T16:33:07;10.10;99.90
39019;DHT22;24786;51.984;5.872;2023-02-22T16:35:41;10.10;99.90
39019;DHT22;24786;51.984;5.872;2023-02-22T16:38:16;10.10;99.90
39019;DHT22;24786;51.984;5.872;2023-02-22T16:40:48;10.00;99.90
39019;DHT22;24786;51.984;5.872;2023-02-22T16:43:22;10.00;99.90
39019;DHT22;24786;51.984;5.872;2023-02-22T16:45:52;10.00;99.90
39019;DHT22;24786;51.984;5.872;2023-02-22T16:48:20;10.00;99.90
39019;DHT22;24786;51.984;5.872;2023-02-22T16:50:47;10.00;99.90
39019;DHT22;24786;51.984;5.872;2023-02-22T16:53:13;9.90;99.90
39019;DHT22;24786;51.984;5.872;2023-02-22T16:55:42;9.90;99.90
39019;DHT22;24786;51.984;5.872;2023-02-22T16:58:11;9.90;99.90
39019;DHT22;24786;51.984;5.872;2023-02-22T17:00:39;9.80;99.90
39019;DHT22;24786;51.984;5.872;2023-02-22T17:03:12;9.80;99.90
39019;DHT22;24786;51.984;5.872;2023-02-22T17:05:44;9.80;99.90
39019;DHT22;24786;51.984;5.872;2023-02-22T17:08:21;9.80;99.90
39019;DHT22;24786;51.984;5.872;2023-02-22T17:10:53;9.70;99.90
39019;DHT22;24786;51.984;5.872;2023-02-22T17:13:23;9.70;99.90
39019;DHT22;24786;51.984;5.872;2023-02-22T17:15:50;9.70;99.90
39019;DHT22;24786;51.984;5.872;2023-02-22T17:18:18;9.60;99.90
39019;DHT22;24786;51.984;5.872;2023-02-22T17:20:47;9.60;99.90
39019;DHT22;24786;51.984;5.872;2023-02-22T17:23:13;9.60;99.90
39019;DHT22;24786;51.984;5.872;2023-02-22T17:25:44;9.60;99.90
39019;DHT22;24786;51.984;5.872;2023-02-22T17:28:13;9.50;99.90
39019;DHT22;24786;51.984;5.872;2023-02-22T17:30:45;9.50;99.90
39019;DHT22;24786;51.984;5.872;2023-02-22T17:33:18;9.50;99.90
39019;DHT22;24786;51.984;5.872;2023-02-22T17:35:45;9.50;99.90
39019;DHT22;24786;51.984;5.872;2023-02-22T17:38:14;9.50;99.90
39019;DHT22;24786;51.984;5.872;2023-02-22T17:40:43;9.40;99.90
39019;DHT22;24786;51.984;5.872;2023-02-22T17:43:13;9.50;99.90
39019;DHT22;24786;51.984;5.872;2023-02-22T17:45:40;9.40;99.90
39019;DHT22;24786;51.984;5.872;2023-02-22T17:48:09;9.40;99.90
39019;DHT22;24786;51.984;5.872;2023-02-22T17:50:39;9.40;99.90
39019;DHT22;24786;51.984;5.872;2023-02-22T17:53:05;9.50;99.90
39019;DHT22;24786;51.984;5.872;2023-02-22T17:55:34;9.40;99.90
39019;DHT22;24786;51.984;5.872;2023-02-22T17:58:00;9.40;99.90
39019;DHT22;24786;51.984;5.872;2023-02-22T18:00:30;9.40;99.90
39019;DHT22;24786;51.984;5.872;2023-02-22T18:03:10;9.40;99.90
39019;DHT22;24786;51.984;5.872;2023-02-22T18:05:42;9.40;99.90
39019;DHT22;24786;51.984;5.872;2023-02-22T18:08:08;9.40;99.90
39019;DHT22;24786;51.984;5.872;2023-02-22T18:10:34;9.40;99.90
39019;DHT22;24786;51.984;5.872;2023-02-22T18:13:00;9.40;99.90
39019;DHT22;24786;51.984;5.872;2023-02-22T18:15:27;9.40;99.90
39019;DHT22;24786;51.984;5.872;2023-02-22T18:17:53;9.40;99.90
39019;DHT22;24786;51.984;5.872;2023-02-22T18:20:19;9.40;99.90
39019;DHT22;24786;51.984;5.872;2023-02-22T18:22:58;9.40;99.90